createdAt,value
2016-02-02T00:00:18.075Z,99.99
2016-02-02T00:01:18.063Z,99.89
2016-02-02T00:02:18.034Z,99.99
2016-02-02T00:03:18.022Z,99.8
2016-02-02T00:04:17.994Z,99.99
2016-02-02T00:05:17.965Z,99.89
2016-02-02T00:06:17.953Z,99.89
2016-02-02T00:07:17.924Z,99.89
2016-02-02T00:08:17.896Z,99.99
2016-02-02T00:09:17.883Z,99.7
2016-02-02T00:10:17.854Z,99.99
2016-02-02T00:11:17.829Z,99.8
2016-02-02T00:12:17.815Z,99.99
2016-02-02T00:13:17.787Z,99.89
2016-02-02T00:14:17.773Z,99.99
2016-02-02T00:15:17.746Z,99.89
2016-02-02T00:16:17.718Z,99.7
2016-02-02T00:17:17.705Z,99.89
2016-02-02T00:18:17.677Z,99.99
2016-02-02T00:19:17.648Z,99.99
2016-02-02T00:20:17.635Z,99.8
2016-02-02T00:21:17.610Z,99.99
2016-02-02T00:22:17.597Z,99.99
2016-02-02T00:23:17.571Z,99.99
2016-02-02T00:24:17.543Z,99.99
2016-02-02T00:25:17.513Z,99.99
2016-02-02T00:26:17.502Z,99.99
2016-02-02T00:27:17.474Z,99.89
2016-02-02T00:28:17.461Z,99.99
2016-02-02T00:29:17.433Z,99.99
2016-02-02T00:30:17.404Z,99.99
2016-02-02T00:31:17.376Z,99.99
2016-02-02T00:32:17.363Z,99.99
2016-02-02T00:33:17.335Z,99.99
2016-02-02T00:34:17.308Z,99.99
2016-02-02T00:35:17.294Z,99.99
2016-02-02T00:36:17.266Z,99.99
2016-02-02T00:37:17.254Z,99.99
2016-02-02T00:38:17.226Z,99.99
2016-02-02T00:39:17.197Z,99.99
2016-02-02T00:40:17.183Z,99.99
2016-02-02T00:41:17.156Z,99.99
2016-02-02T00:42:17.129Z,99.99
2016-02-02T00:43:17.115Z,99.99
2016-02-02T00:44:17.087Z,99.99
2016-02-02T00:45:17.059Z,99.99
2016-02-02T00:46:17.046Z,99.99
2016-02-02T00:47:17.018Z,99.99
2016-02-02T00:48:17.005Z,99.99
2016-02-02T00:49:16.977Z,99.99
2016-02-02T00:50:16.949Z,99.99
2016-02-02T00:51:16.935Z,99.99
2016-02-02T00:52:16.907Z,99.99
2016-02-02T00:53:16.879Z,99.99
2016-02-02T00:54:16.867Z,99.99
2016-02-02T00:55:16.838Z,99.99
2016-02-02T00:56:16.825Z,99.99
2016-02-02T00:57:16.796Z,99.99
2016-02-02T00:58:16.768Z,99.99
2016-02-02T00:59:16.756Z,99.99
2016-02-02T01:00:16.733Z,99.99
2016-02-02T01:01:16.705Z,99.99
2016-02-02T01:02:16.677Z,99.99
2016-02-02T01:03:16.664Z,99.99
2016-02-02T01:04:16.651Z,99.99
2016-02-02T01:05:16.622Z,99.99
2016-02-02T01:06:16.594Z,99.99
2016-02-02T01:07:16.566Z,99.99
2016-02-02T01:08:16.554Z,99.99
2016-02-02T01:09:16.526Z,99.99
2016-02-02T01:10:16.498Z,99.99
2016-02-02T01:11:16.484Z,99.41
2016-02-02T01:12:16.456Z,99.6
2016-02-02T01:13:16.443Z,99.99
2016-02-02T01:14:16.414Z,99.51
2016-02-02T01:15:16.386Z,99.8
2016-02-02T01:16:16.373Z,99.8
2016-02-02T01:17:16.345Z,99.99
2016-02-02T01:18:16.316Z,99.99
2016-02-02T01:19:16.304Z,99.99
2016-02-02T01:20:16.275Z,99.99
2016-02-02T01:21:16.246Z,99.99
2016-02-02T01:22:16.234Z,99.99
2016-02-02T01:23:16.205Z,99.99
2016-02-02T01:24:16.192Z,99.99
2016-02-02T01:25:16.164Z,99.99
2016-02-02T01:26:16.135Z,99.99
2016-02-02T01:27:16.122Z,99.99
2016-02-02T01:28:16.094Z,99.99
2016-02-02T01:29:16.074Z,99.99
2016-02-02T01:30:16.049Z,99.99
2016-02-02T01:31:16.020Z,99.99
2016-02-02T01:32:16.006Z,99.99
2016-02-02T01:33:15.994Z,99.99
2016-02-02T01:34:15.965Z,99.99
2016-02-02T01:35:15.938Z,99.99
2016-02-02T01:36:15.909Z,99.99
2016-02-02T01:37:15.898Z,99.99
2016-02-02T01:38:15.869Z,99.99
2016-02-02T01:39:15.839Z,99.99
2016-02-02T01:40:15.829Z,99.99
2016-02-02T01:41:15.800Z,99.99
2016-02-02T01:42:15.772Z,99.99
2016-02-02T01:43:15.759Z,99.99
2016-02-02T01:44:15.731Z,99.99
2016-02-02T01:45:15.703Z,99.99
2016-02-02T01:46:15.690Z,99.99
2016-02-02T01:47:15.661Z,99.99
2016-02-02T01:48:15.648Z,99.99
2016-02-02T01:49:15.623Z,99.99
2016-02-02T01:50:15.594Z,99.99
2016-02-02T01:51:15.569Z,99.99
2016-02-02T01:52:15.555Z,99.99
2016-02-02T01:53:15.528Z,99.99
2016-02-02T01:54:15.514Z,99.99
2016-02-02T01:55:15.485Z,99.99
2016-02-02T01:56:15.460Z,99.99
2016-02-02T01:57:15.431Z,99.99
2016-02-02T01:58:15.419Z,99.99
2016-02-02T01:59:15.390Z,99.99
2016-02-02T02:00:15.379Z,99.99
2016-02-02T02:01:15.351Z,99.99
2016-02-02T02:02:15.321Z,99.99
2016-02-02T02:03:15.309Z,99.99
2016-02-02T02:04:15.280Z,99.99
2016-02-02T02:05:15.254Z,99.99
2016-02-02T02:06:15.240Z,99.99
2016-02-02T02:07:15.228Z,99.99
2016-02-02T02:08:15.184Z,99.99
2016-02-02T02:09:15.171Z,99.99
2016-02-02T02:10:15.143Z,99.99
2016-02-02T02:11:15.129Z,99.8
2016-02-02T02:12:15.101Z,99.8
2016-02-02T02:13:15.073Z,99.8
2016-02-02T02:14:15.061Z,99.7
2016-02-02T02:15:15.032Z,99.99
2016-02-02T02:16:15.004Z,99.99
2016-02-02T02:17:15.014Z,99.89
2016-02-02T02:18:14.970Z,99.8
2016-02-02T02:19:14.941Z,99.99
2016-02-02T02:20:14.927Z,99.99
2016-02-02T02:21:14.900Z,99.99
2016-02-02T02:22:14.871Z,99.99
2016-02-02T02:23:14.859Z,99.99
2016-02-02T02:24:14.830Z,99.99
2016-02-02T02:25:14.802Z,99.99
2016-02-02T02:26:14.793Z,99.99
2016-02-02T02:27:14.763Z,99.99
2016-02-02T02:28:14.735Z,99.99
2016-02-02T02:29:14.709Z,99.99
2016-02-02T02:30:14.696Z,99.99
2016-02-02T02:31:14.667Z,99.99
2016-02-02T02:32:14.639Z,99.99
2016-02-02T02:33:14.626Z,99.99
2016-02-02T02:34:14.613Z,99.99
2016-02-02T02:35:14.584Z,99.99
2016-02-02T02:36:14.571Z,99.99
2016-02-02T02:37:14.528Z,99.99
2016-02-02T02:38:14.515Z,99.99
2016-02-02T02:39:14.486Z,99.99
2016-02-02T02:40:14.472Z,99.99
2016-02-02T02:41:14.444Z,99.99
2016-02-02T02:42:14.417Z,99.99
2016-02-02T02:43:14.404Z,99.99
2016-02-02T02:44:14.375Z,99.99
2016-02-02T02:45:14.363Z,99.8
2016-02-02T02:46:14.381Z,99.99
2016-02-02T02:47:14.308Z,99.99
2016-02-02T02:48:14.279Z,99.99
2016-02-02T02:49:14.267Z,99.99
2016-02-02T02:50:14.285Z,99.99
2016-02-02T02:51:14.209Z,99.99
2016-02-02T02:52:14.197Z,99.99
2016-02-02T02:53:14.169Z,99.8
2016-02-02T02:54:14.157Z,99.99
2016-02-02T02:55:14.127Z,99.99
2016-02-02T02:56:14.103Z,99.99
2016-02-02T02:57:14.074Z,99.99
2016-02-02T02:58:14.061Z,99.99
2016-02-02T02:59:14.038Z,99.89
2016-02-02T03:00:14.009Z,99.99
2016-02-02T03:01:13.996Z,99.99
2016-02-02T03:02:13.968Z,99.99
2016-02-02T03:03:13.939Z,99.99
2016-02-02T03:04:13.915Z,99.8
2016-02-02T03:05:13.901Z,99.99
2016-02-02T03:06:13.874Z,99.99
2016-02-02T03:07:13.862Z,99.99
2016-02-02T03:08:13.833Z,99.99
2016-02-02T03:09:13.804Z,99.99
2016-02-02T03:10:13.791Z,99.99
2016-02-02T03:11:13.763Z,99.7
2016-02-02T03:12:13.751Z,99.99
2016-02-02T03:13:13.723Z,99.8
2016-02-02T03:14:13.697Z,99.99
2016-02-02T03:15:13.671Z,99.8
2016-02-02T03:16:13.641Z,99.99
2016-02-02T03:17:13.629Z,99.99
2016-02-02T03:18:13.616Z,99.7
2016-02-02T03:19:13.588Z,99.89
2016-02-02T03:20:13.560Z,99.7
2016-02-02T03:21:13.531Z,99.8
2016-02-02T03:22:13.518Z,99.99
2016-02-02T03:23:13.490Z,99.99
2016-02-02T03:24:13.481Z,99.8
2016-02-02T03:25:13.453Z,99.8
2016-02-02T03:26:13.424Z,99.99
2016-02-02T03:27:13.397Z,99.8
2016-02-02T03:28:13.384Z,99.99
2016-02-02T03:29:13.358Z,99.99
2016-02-02T03:30:13.338Z,99.8
2016-02-02T03:31:13.309Z,99.6
2016-02-02T03:32:13.280Z,99.89
2016-02-02T03:33:13.267Z,99.99
2016-02-02T03:34:13.241Z,99.99
2016-02-02T03:35:13.229Z,99.99
2016-02-02T03:36:13.199Z,99.99
2016-02-02T03:37:13.187Z,99.8
2016-02-02T03:38:13.144Z,99.99
2016-02-02T03:39:13.131Z,99.99
2016-02-02T03:40:13.102Z,99.99
2016-02-02T03:41:13.088Z,99.89
2016-02-02T03:42:13.060Z,99.41
2016-02-02T03:43:13.031Z,99.99
2016-02-02T03:44:13.006Z,99.89
2016-02-02T03:45:12.967Z,99.6
2016-02-02T03:46:12.927Z,99.51
2016-02-02T03:47:12.903Z,99.7
2016-02-02T03:48:12.865Z,99.8
2016-02-02T03:49:12.848Z,99.99
2016-02-02T03:50:12.818Z,99.99
2016-02-02T03:51:12.785Z,99.6
2016-02-02T03:52:12.769Z,99.99
2016-02-02T03:53:12.737Z,99.6
2016-02-02T03:54:12.706Z,99.7
2016-02-02T03:55:12.693Z,99.99
2016-02-02T03:56:12.662Z,99.99
2016-02-02T03:57:12.632Z,99.99
2016-02-02T03:58:12.619Z,99.99
2016-02-02T03:59:12.590Z,99.89
2016-02-02T04:00:12.561Z,99.99
2016-02-02T04:01:12.546Z,99.8
2016-02-02T04:02:12.517Z,99.8
2016-02-02T04:03:12.489Z,99.8
2016-02-02T04:04:12.495Z,99.8
2016-02-02T04:05:12.451Z,99.99
2016-02-02T04:06:12.438Z,99.7
2016-02-02T04:07:12.411Z,99.8
2016-02-02T04:08:12.382Z,99.99
2016-02-02T04:09:12.369Z,99.89
2016-02-02T04:10:12.340Z,99.8
2016-02-02T04:11:12.313Z,99.7
2016-02-02T04:12:12.300Z,99.8
2016-02-02T04:13:12.271Z,99.51
2016-02-02T04:14:12.258Z,99.41
2016-02-02T04:15:12.230Z,99.7
2016-02-02T04:16:12.203Z,99.41
2016-02-02T04:17:12.186Z,99.8
2016-02-02T04:18:12.158Z,99.51
2016-02-02T04:19:12.145Z,99.41
2016-02-02T04:20:12.118Z,99.41
2016-02-02T04:21:12.089Z,99.41
2016-02-02T04:22:12.075Z,99.89
2016-02-02T04:23:12.047Z,99.8
2016-02-02T04:24:12.020Z,99.89
2016-02-02T04:25:12.007Z,99.6
2016-02-02T04:26:11.978Z,99.8
2016-02-02T04:27:11.950Z,99.89
2016-02-02T04:28:11.938Z,99.8
2016-02-02T04:29:11.910Z,99.8
2016-02-02T04:30:11.897Z,99.99
2016-02-02T04:31:11.869Z,99.6
2016-02-02T04:32:11.841Z,99.8
2016-02-02T04:33:11.843Z,99.99
2016-02-02T04:34:11.799Z,99.99
2016-02-02T04:35:11.771Z,99.99
2016-02-02T04:36:11.758Z,99.99
2016-02-02T04:37:11.730Z,98.94
2016-02-02T04:38:11.718Z,99.7
2016-02-02T04:39:11.688Z,99.99
2016-02-02T04:40:11.660Z,99.13
2016-02-02T04:41:11.648Z,99.99
2016-02-02T04:42:11.620Z,99.99
2016-02-02T04:43:11.591Z,99.99
2016-02-02T04:44:11.578Z,99.99
2016-02-02T04:45:11.566Z,99.7
2016-02-02T04:46:11.537Z,99.13
2016-02-02T04:47:11.508Z,99.99
2016-02-02T04:48:11.479Z,99.41
2016-02-02T04:49:11.467Z,98.85
2016-02-02T04:50:11.438Z,99.99
2016-02-02T04:51:11.426Z,99.13
2016-02-02T04:52:11.397Z,99.89
2016-02-02T04:53:11.369Z,99.99
2016-02-02T04:54:11.356Z,99.99
2016-02-02T04:55:11.327Z,99.7
2016-02-02T04:56:11.315Z,99.7
2016-02-02T04:57:11.286Z,99.6
2016-02-02T04:58:11.259Z,99.6
2016-02-02T04:59:11.245Z,99.8
2016-02-02T05:00:11.217Z,99.8
2016-02-02T05:01:11.191Z,99.75
2016-02-02T05:02:11.177Z,99.99
2016-02-02T05:03:11.165Z,99.99
2016-02-02T05:04:11.135Z,99.85
2016-02-02T05:05:11.108Z,99.41
2016-02-02T05:06:11.094Z,99.56
2016-02-02T05:07:11.067Z,99.99
2016-02-02T05:08:11.055Z,99.56
2016-02-02T05:09:11.026Z,99.46
2016-02-02T05:10:11.013Z,99.46
2016-02-02T05:11:10.984Z,99.85
2016-02-02T05:12:10.959Z,99.99
2016-02-02T05:13:10.930Z,99.66
2016-02-02T05:14:10.906Z,99.95
2016-02-02T05:15:10.892Z,99.99
2016-02-02T05:16:10.864Z,99.75
2016-02-02T05:17:10.851Z,99.6
2016-02-02T05:18:10.823Z,99.7
2016-02-02T05:19:10.794Z,99.7
2016-02-02T05:20:10.780Z,99.51
2016-02-02T05:21:10.767Z,99.27
2016-02-02T05:22:10.740Z,99.22
2016-02-02T05:23:10.712Z,99.32
2016-02-02T05:24:10.698Z,99.41
2016-02-02T05:25:10.670Z,99.56
2016-02-02T05:26:10.642Z,99.46
2016-02-02T05:27:10.629Z,99.22
2016-02-02T05:28:10.601Z,99.27
2016-02-02T05:29:10.572Z,99.37
2016-02-02T05:30:10.550Z,99.18
2016-02-02T05:31:10.536Z,99.51
2016-02-02T05:32:10.508Z,99.32
2016-02-02T05:33:10.495Z,99.51
2016-02-02T05:34:10.467Z,99.32
2016-02-02T05:35:10.438Z,99.6
2016-02-02T05:36:10.425Z,99.6
2016-02-02T05:37:10.397Z,99.51
2016-02-02T05:38:10.385Z,99.56
2016-02-02T05:39:10.371Z,99.89
2016-02-02T05:40:10.340Z,99.8
2016-02-02T05:41:10.311Z,99.7
2016-02-02T05:42:10.298Z,99.51
2016-02-02T05:43:10.270Z,99.7
2016-02-02T05:44:10.245Z,99.51
2016-02-02T05:45:10.233Z,99.99
2016-02-02T05:46:10.203Z,99.8
2016-02-02T05:47:10.175Z,99.04
2016-02-02T05:48:10.163Z,98.94
2016-02-02T05:49:10.133Z,99.6
2016-02-02T05:50:10.122Z,99.41
2016-02-02T05:51:10.092Z,99.6
2016-02-02T05:52:10.080Z,99.51
2016-02-02T05:53:10.052Z,99.22
2016-02-02T05:54:10.024Z,98.85
2016-02-02T05:55:10.011Z,99.8
2016-02-02T05:56:09.982Z,99.6
2016-02-02T05:57:09.953Z,99.04
2016-02-02T05:58:09.941Z,99.41
2016-02-02T05:59:09.912Z,98.94
2016-02-02T06:00:09.899Z,99.8
2016-02-02T06:01:09.868Z,99.6
2016-02-02T06:02:09.840Z,99.6
2016-02-02T06:03:09.829Z,99.8
2016-02-02T06:04:09.799Z,99.6
2016-02-02T06:05:09.787Z,99.8
2016-02-02T06:06:09.757Z,99.6
2016-02-02T06:07:09.746Z,99.6
2016-02-02T06:08:09.717Z,99.6
2016-02-02T06:09:09.688Z,99.51
2016-02-02T06:10:09.676Z,99.6
2016-02-02T06:11:09.647Z,99.7
2016-02-02T06:12:09.635Z,99.8
2016-02-02T06:13:09.606Z,99.41
2016-02-02T06:14:09.577Z,99.8
2016-02-02T06:15:09.568Z,99.6
2016-02-02T06:16:09.538Z,99.99
2016-02-02T06:17:09.510Z,99.8
2016-02-02T06:18:09.513Z,99.22
2016-02-02T06:19:09.470Z,99.41
2016-02-02T06:20:09.443Z,99.13
2016-02-02T06:21:09.429Z,99.13
2016-02-02T06:22:09.417Z,99.32
2016-02-02T06:23:09.388Z,99.41
2016-02-02T06:24:09.360Z,99.13
2016-02-02T06:25:09.332Z,99.04
2016-02-02T06:26:09.307Z,99.51
2016-02-02T06:27:09.294Z,99.13
2016-02-02T06:28:09.266Z,99.6
2016-02-02T06:29:09.252Z,99.51
2016-02-02T06:30:09.239Z,99.7
2016-02-02T06:31:09.204Z,98.75
2016-02-02T06:32:09.177Z,98.94
2016-02-02T06:33:09.148Z,98.75
2016-02-02T06:34:09.135Z,98.75
2016-02-02T06:35:09.106Z,99.13
2016-02-02T06:36:09.094Z,98.85
2016-02-02T06:37:09.066Z,99.13
2016-02-02T06:38:09.038Z,99.13
2016-02-02T06:39:09.024Z,99.13
2016-02-02T06:40:08.996Z,98.75
2016-02-02T06:41:08.983Z,98.85
2016-02-02T06:42:08.954Z,98.85
2016-02-02T06:43:08.941Z,99.04
2016-02-02T06:44:08.913Z,98.56
2016-02-02T06:45:08.885Z,99.13
2016-02-02T06:46:08.871Z,98.85
2016-02-02T06:47:08.843Z,98.85
2016-02-02T06:48:08.814Z,99.13
2016-02-02T06:49:08.802Z,98.85
2016-02-02T06:50:08.789Z,98.85
2016-02-02T06:51:08.759Z,98.75
2016-02-02T06:52:08.732Z,98.65
2016-02-02T06:53:08.705Z,98.65
2016-02-02T06:54:08.691Z,98.85
2016-02-02T06:55:08.662Z,98.75
2016-02-02T06:56:08.649Z,98.65
2016-02-02T06:57:08.622Z,98.65
2016-02-02T06:58:08.595Z,98.56
2016-02-02T06:59:08.581Z,99.13
2016-02-02T07:00:08.553Z,98.94
2016-02-02T07:01:08.527Z,99.04
2016-02-02T07:02:08.514Z,99.04
2016-02-02T07:03:08.486Z,98.85
2016-02-02T07:04:08.472Z,99.13
2016-02-02T07:05:08.444Z,99.22
2016-02-02T07:06:08.431Z,98.75
2016-02-02T07:07:08.403Z,98.85
2016-02-02T07:08:08.375Z,98.75
2016-02-02T07:09:08.363Z,98.75
2016-02-02T07:10:08.334Z,98.75
2016-02-02T07:11:08.305Z,98.65
2016-02-02T07:12:08.292Z,99.13
2016-02-02T07:13:08.268Z,99.04
2016-02-02T07:14:08.240Z,98.94
2016-02-02T07:15:08.211Z,98.94
2016-02-02T07:16:08.198Z,98.65
2016-02-02T07:17:08.169Z,98.65
2016-02-02T07:18:08.158Z,98.94
2016-02-02T07:19:08.129Z,99.04
2016-02-02T07:20:08.101Z,98.65
2016-02-02T07:21:08.077Z,98.75
2016-02-02T07:22:08.065Z,98.75
2016-02-02T07:23:08.036Z,98.85
2016-02-02T07:24:08.023Z,98.56
2016-02-02T07:25:07.994Z,98.75
2016-02-02T07:26:07.965Z,99.04
2016-02-02T07:27:07.949Z,98.94
2016-02-02T07:28:07.921Z,99.13
2016-02-02T07:29:07.908Z,98.94
2016-02-02T07:30:07.880Z,98.94
2016-02-02T07:31:07.885Z,99.04
2016-02-02T07:32:07.870Z,98.56
2016-02-02T07:33:09.886Z,99.13
2016-02-02T07:34:16.468Z,98.85
2016-02-02T07:35:08.353Z,98.6
2016-02-02T07:36:07.746Z,98.65
2016-02-02T07:37:07.764Z,99.08
2016-02-02T07:38:07.689Z,98.99
2016-02-02T07:39:07.673Z,98.89
2016-02-02T07:40:07.651Z,98.89
2016-02-02T07:41:07.624Z,99.04
2016-02-02T07:42:07.610Z,98.56
2016-02-02T07:43:07.582Z,98.51
2016-02-02T07:44:07.569Z,98.99
2016-02-02T07:45:07.541Z,98.6
2016-02-02T07:46:07.699Z,98.89
2016-02-02T07:47:07.499Z,98.99
2016-02-02T07:48:07.472Z,98.99
2016-02-02T07:49:07.444Z,98.89
2016-02-02T07:50:07.431Z,98.51
2016-02-02T07:51:07.405Z,98.89
2016-02-02T07:52:07.377Z,98.99
2016-02-02T07:53:07.364Z,98.6
2016-02-02T07:54:07.335Z,98.41
2016-02-02T07:55:07.311Z,98.7
2016-02-02T07:56:07.298Z,98.99
2016-02-02T07:57:07.269Z,98.79
2016-02-02T07:58:07.241Z,98.89
2016-02-02T07:59:07.229Z,98.6
2016-02-02T08:00:07.202Z,98.99
2016-02-02T08:01:07.173Z,98.89
2016-02-02T08:02:07.160Z,99.08
2016-02-02T08:03:07.132Z,99.08
2016-02-02T08:04:07.119Z,98.89
2016-02-02T08:05:07.088Z,99.08
2016-02-02T08:06:07.060Z,98.6
2016-02-02T08:07:07.048Z,98.89
2016-02-02T08:08:07.021Z,98.6
2016-02-02T08:09:07.007Z,98.89
2016-02-02T08:10:06.994Z,98.79
2016-02-02T08:11:06.950Z,98.89
2016-02-02T08:12:06.937Z,99.08
2016-02-02T08:13:06.909Z,99.08
2016-02-02T08:14:06.887Z,98.89
2016-02-02T08:15:06.863Z,98.89
2016-02-02T08:16:06.837Z,98.79
2016-02-02T08:17:06.823Z,98.89
2016-02-02T08:18:06.795Z,98.41
2016-02-02T08:19:06.782Z,98.6
2016-02-02T08:20:06.753Z,98.7
2016-02-02T08:21:06.728Z,98.89
2016-02-02T08:22:06.856Z,98.89
2016-02-02T08:23:06.703Z,98.7
2016-02-02T08:24:06.658Z,98.99
2016-02-02T08:25:06.645Z,98.7
2016-02-02T08:26:06.618Z,98.79
2016-02-02T08:27:06.589Z,98.99
2016-02-02T08:28:06.578Z,98.89
2016-02-02T08:29:06.550Z,98.51
2016-02-02T08:30:06.524Z,98.51
2016-02-02T08:31:06.496Z,98.89
2016-02-02T08:32:06.483Z,98.99
2016-02-02T08:33:06.454Z,99.08
2016-02-02T08:34:06.441Z,98.89
2016-02-02T08:35:06.413Z,98.89
2016-02-02T08:36:06.385Z,98.51
2016-02-02T08:37:06.371Z,98.7
2016-02-02T08:38:06.343Z,98.32
2016-02-02T08:39:06.330Z,98.27
2016-02-02T08:40:06.302Z,98.7
2016-02-02T08:41:06.273Z,98.84
2016-02-02T08:42:06.261Z,98.65
2016-02-02T08:43:06.233Z,98.94
2016-02-02T08:44:06.204Z,98.84
2016-02-02T08:45:06.191Z,98.74
2016-02-02T08:46:06.163Z,98.55
2016-02-02T08:47:06.137Z,98.74
2016-02-02T08:48:06.124Z,98.84
2016-02-02T08:49:06.096Z,98.46
2016-02-02T08:50:06.067Z,98.36
2016-02-02T08:51:06.054Z,98.36
2016-02-02T08:52:06.028Z,98.94
2016-02-02T08:53:06.015Z,98.65
2016-02-02T08:54:05.986Z,98.65
2016-02-02T08:55:05.956Z,98.74
2016-02-02T08:56:05.933Z,99.03
2016-02-02T08:57:05.920Z,98.74
2016-02-02T08:58:05.882Z,98.46
2016-02-02T08:59:05.869Z,98.94
2016-02-02T09:00:05.841Z,98.84
2016-02-02T09:01:05.812Z,99.69
2016-02-02T09:02:05.800Z,99.69
2016-02-02T09:03:05.771Z,99.41
2016-02-02T09:04:05.743Z,99.03
2016-02-02T09:05:05.730Z,98.74
2016-02-02T09:06:05.702Z,98.84
2016-02-02T09:07:05.689Z,99.13
2016-02-02T09:08:05.664Z,99.6
2016-02-02T09:09:05.635Z,99.51
2016-02-02T09:10:05.607Z,99.51
2016-02-02T09:11:05.594Z,99.32
2016-02-02T09:12:05.582Z,99.32
2016-02-02T09:13:05.539Z,99.22
2016-02-02T09:14:05.527Z,99.51
2016-02-02T09:15:05.514Z,99.41
2016-02-02T09:16:05.470Z,99.32
2016-02-02T09:17:05.458Z,99.51
2016-02-02T09:18:05.430Z,99.51
2016-02-02T09:19:05.400Z,99.79
2016-02-02T09:20:05.378Z,99.79
2016-02-02T09:21:05.365Z,99.6
2016-02-02T09:22:05.336Z,98.94
2016-02-02T09:23:05.308Z,98.84
2016-02-02T09:24:05.294Z,99.22
2016-02-02T09:25:05.267Z,99.22
2016-02-02T09:26:05.253Z,99.51
2016-02-02T09:27:05.228Z,98.84
2016-02-02T09:28:05.215Z,99.6
2016-02-02T09:29:05.171Z,99.13
2016-02-02T09:30:05.158Z,99.41
2016-02-02T09:31:05.130Z,99.6
2016-02-02T09:32:05.100Z,99.13
2016-02-02T09:33:05.088Z,99.13
2016-02-02T09:34:05.060Z,99.41
2016-02-02T09:35:05.031Z,99.51
2016-02-02T09:36:05.019Z,99.41
2016-02-02T09:37:04.990Z,99.69
2016-02-02T09:38:04.978Z,98.74
2016-02-02T09:39:04.949Z,98.65
2016-02-02T09:40:04.921Z,98.74
2016-02-02T09:41:04.908Z,99.03
2016-02-02T09:42:04.879Z,98.74
2016-02-02T09:43:04.851Z,98.84
2016-02-02T09:44:04.838Z,99.03
2016-02-02T09:45:04.809Z,98.84
2016-02-02T09:46:04.797Z,98.94
2016-02-02T09:47:04.768Z,98.74
2016-02-02T09:48:04.739Z,99.03
2016-02-02T09:49:04.711Z,99.69
2016-02-02T09:50:04.699Z,98.65
2016-02-02T09:51:04.672Z,98.65
2016-02-02T09:52:04.658Z,99.32
2016-02-02T09:53:04.630Z,98.84
2016-02-02T09:54:04.601Z,99.69
2016-02-02T09:55:04.588Z,99.41
2016-02-02T09:56:04.565Z,99.41
2016-02-02T09:57:04.537Z,99.13
2016-02-02T09:58:04.554Z,99.41
2016-02-02T09:59:04.603Z,99.08
2016-02-02T10:00:04.482Z,99.08
2016-02-02T10:01:04.579Z,99.51
2016-02-02T10:02:04.491Z,99.51
2016-02-02T10:03:04.447Z,99.32
2016-02-02T10:04:04.404Z,99.22
2016-02-02T10:05:04.344Z,99.22
2016-02-02T10:06:04.362Z,99.32
2016-02-02T10:07:04.302Z,99.41
2016-02-02T10:08:04.289Z,99.69
2016-02-02T10:09:04.387Z,99.13
2016-02-02T10:10:04.359Z,99.51
2016-02-02T10:11:04.298Z,99.51
2016-02-02T10:12:04.223Z,99.79
2016-02-02T10:13:04.163Z,99.6
2016-02-02T10:14:04.151Z,99.69
2016-02-02T10:15:04.122Z,99.51
2016-02-02T10:16:04.092Z,99.13
2016-02-02T10:17:04.080Z,99.6
2016-02-02T10:18:04.052Z,99.41
2016-02-02T10:19:04.039Z,99.69
2016-02-02T10:20:04.010Z,99.32
2016-02-02T10:21:03.981Z,99.32
2016-02-02T10:22:03.968Z,99.13
2016-02-02T10:23:03.940Z,99.6
2016-02-02T10:24:03.911Z,99.51
2016-02-02T10:25:03.899Z,99.51
2016-02-02T10:26:03.869Z,99.51
2016-02-02T10:27:03.845Z,99.6
2016-02-02T10:28:03.832Z,99.69
2016-02-02T10:29:03.804Z,99.03
2016-02-02T10:30:03.775Z,99.32
2016-02-02T10:31:03.762Z,98.84
2016-02-02T10:32:03.734Z,98.94
2016-02-02T10:33:03.709Z,98.94
2016-02-02T10:34:03.695Z,99.32
2016-02-02T10:35:03.662Z,99.41
2016-02-02T10:36:03.649Z,99.51
2016-02-02T10:37:03.621Z,99.51
2016-02-02T10:38:03.593Z,99.03
2016-02-02T10:39:03.579Z,99.13
2016-02-02T10:40:03.553Z,99.32
2016-02-02T10:41:03.524Z,99.22
2016-02-02T10:42:03.511Z,99.51
2016-02-02T10:43:03.497Z,99.22
2016-02-02T10:44:03.469Z,99.79
2016-02-02T10:45:03.441Z,99.13
2016-02-02T10:46:03.444Z,99.03
2016-02-02T10:47:03.400Z,99.13
2016-02-02T10:48:03.371Z,99.03
2016-02-02T10:49:03.343Z,98.74
2016-02-02T10:50:03.331Z,99.13
2016-02-02T10:51:03.302Z,98.74
2016-02-02T10:52:03.272Z,99.03
2016-02-02T10:53:03.260Z,98.74
2016-02-02T10:54:03.232Z,98.74
2016-02-02T10:55:03.219Z,98.65
2016-02-02T10:56:03.190Z,98.74
2016-02-02T10:57:03.165Z,99.6
2016-02-02T10:58:03.155Z,98.84
2016-02-02T10:59:03.126Z,99.6
2016-02-02T11:00:03.097Z,99.32
2016-02-02T11:01:03.069Z,98.65
2016-02-02T11:02:03.056Z,98.84
2016-02-02T11:03:03.058Z,98.65
2016-02-02T11:04:02.999Z,98.84
2016-02-02T11:05:02.986Z,98.65
2016-02-02T11:06:02.957Z,99.51
2016-02-02T11:07:02.944Z,98.84
2016-02-02T11:08:02.915Z,98.84
2016-02-02T11:09:02.888Z,99.6
2016-02-02T11:10:02.863Z,98.65
2016-02-02T11:11:02.882Z,99.69
2016-02-02T11:12:02.822Z,99.22
2016-02-02T11:13:02.809Z,99.32
2016-02-02T11:14:02.781Z,98.94
2016-02-02T11:15:02.753Z,99.03
2016-02-02T11:16:02.740Z,99.32
2016-02-02T11:17:02.712Z,98.94
2016-02-02T11:18:02.684Z,98.84
2016-02-02T11:19:02.655Z,98.74
2016-02-02T11:20:02.642Z,98.84
2016-02-02T11:21:02.613Z,99.22
2016-02-02T11:22:02.588Z,98.84
2016-02-02T11:23:02.575Z,98.84
2016-02-02T11:24:02.547Z,98.84
2016-02-02T11:25:02.533Z,98.65
2016-02-02T11:26:02.505Z,99.32
2016-02-02T11:27:02.478Z,98.74
2016-02-02T11:28:02.456Z,99.22
2016-02-02T11:29:02.443Z,98.65
2016-02-02T11:30:02.414Z,99.69
2016-02-02T11:31:02.402Z,99.6
2016-02-02T11:32:02.373Z,98.65
2016-02-02T11:33:02.344Z,99.69
2016-02-02T11:34:02.317Z,98.74
2016-02-02T11:35:02.304Z,98.84
2016-02-02T11:36:02.276Z,99.79
2016-02-02T11:37:02.248Z,99.41
2016-02-02T11:38:02.234Z,99.51
2016-02-02T11:39:02.205Z,99.41
2016-02-02T11:40:02.192Z,98.94
2016-02-02T11:41:02.166Z,98.84
2016-02-02T11:42:02.138Z,98.74
2016-02-02T11:43:02.125Z,98.74
2016-02-02T11:44:02.096Z,98.55
2016-02-02T11:45:02.083Z,98.74
2016-02-02T11:46:02.059Z,98.55
2016-02-02T11:47:02.030Z,98.46
2016-02-02T11:48:02.003Z,98.55
2016-02-02T11:49:01.990Z,98.65
2016-02-02T11:50:01.962Z,98.94
2016-02-02T11:51:01.932Z,98.55
2016-02-02T11:52:01.920Z,98.84
2016-02-02T11:53:01.891Z,98.84
2016-02-02T11:54:01.879Z,98.74
2016-02-02T11:55:01.850Z,98.74
2016-02-02T11:56:01.820Z,98.84
2016-02-02T11:57:01.808Z,98.65
2016-02-02T11:58:01.797Z,98.36
2016-02-02T11:59:01.753Z,98.84
2016-02-02T12:00:01.742Z,98.36
2016-02-02T12:01:01.712Z,98.65
2016-02-02T12:02:01.684Z,98.84
2016-02-02T12:03:01.670Z,98.74
2016-02-02T12:04:01.646Z,98.55
2016-02-02T12:05:01.634Z,98.46
2016-02-02T12:06:01.604Z,98.94
2016-02-02T12:07:01.577Z,98.94
2016-02-02T12:08:01.549Z,98.84
2016-02-02T12:09:01.536Z,98.94
2016-02-02T12:10:01.507Z,98.94
2016-02-02T12:11:01.480Z,98.69
2016-02-02T12:12:01.467Z,98.69
2016-02-02T12:13:01.438Z,98.79
2016-02-02T12:14:01.409Z,98.5
2016-02-02T12:15:01.411Z,98.98
2016-02-02T12:16:01.368Z,98.88
2016-02-02T12:17:01.340Z,98.98
2016-02-02T12:18:01.327Z,98.79
2016-02-02T12:19:01.298Z,98.88
2016-02-02T12:20:01.285Z,98.69
2016-02-02T12:21:01.256Z,98.98
2016-02-02T12:22:01.228Z,98.41
2016-02-02T12:23:01.200Z,98.65
2016-02-02T12:24:01.187Z,98.5
2016-02-02T12:25:01.158Z,98.88
2016-02-02T12:26:01.130Z,98.79
2016-02-02T12:27:01.117Z,98.98
2016-02-02T12:28:01.089Z,98.69
2016-02-02T12:29:01.071Z,98.32
2016-02-02T12:30:01.043Z,98.32
2016-02-02T12:31:01.014Z,98.79
2016-02-02T12:32:01.001Z,98.79
2016-02-02T12:33:00.988Z,98.5
2016-02-02T12:34:00.943Z,98.6
2016-02-02T12:35:00.931Z,98.6
2016-02-02T12:36:00.903Z,98.79
2016-02-02T12:37:00.905Z,98.69
2016-02-02T12:38:00.860Z,98.79
2016-02-02T12:39:00.848Z,98.41
2016-02-02T12:40:00.819Z,98.79
2016-02-02T12:41:00.791Z,98.88
2016-02-02T12:42:00.765Z,98.6
2016-02-02T12:43:00.751Z,98.5
2016-02-02T12:44:00.722Z,98.5
2016-02-02T12:45:00.695Z,98.5
2016-02-02T12:46:00.665Z,98.88
2016-02-02T12:47:00.653Z,98.69
2016-02-02T12:48:00.639Z,98.88
2016-02-02T12:49:00.611Z,98.5
2016-02-02T12:50:00.576Z,98.69
2016-02-02T12:51:00.535Z,98.88
2016-02-02T12:52:00.513Z,98.69
2016-02-02T12:53:00.474Z,98.79
2016-02-02T12:54:00.435Z,98.88
2016-02-02T12:55:00.401Z,98.79
2016-02-02T12:56:00.383Z,98.98